createdAt,value
2019-05-07T00:00:08.083Z,168.75
2019-05-07T00:01:08.082Z,174.38
2019-05-07T00:02:08.079Z,168.75
2019-05-07T00:03:08.055Z,174.38
2019-05-07T00:04:08.052Z,168.75
2019-05-07T00:05:08.053Z,168.75
2019-05-07T00:06:08.025Z,174.38
2019-05-07T00:07:08.027Z,174.38
2019-05-07T00:08:08.026Z,168.75
2019-05-07T00:09:08.003Z,168.75
2019-05-07T00:10:07.989Z,174.38
2019-05-07T00:11:07.979Z,174.38
2019-05-07T00:12:07.985Z,174.38
2019-05-07T00:13:07.975Z,180.00
2019-05-07T00:14:07.966Z,174.38
2019-05-07T00:15:07.944Z,174.38
2019-05-07T00:16:07.928Z,174.38
2019-05-07T00:17:07.926Z,168.75
2019-05-07T00:18:07.913Z,168.75
2019-05-07T00:19:07.908Z,168.75
2019-05-07T00:20:07.899Z,163.13
2019-05-07T00:21:07.887Z,163.13
2019-05-07T00:22:07.879Z,157.50
2019-05-07T00:23:07.872Z,151.88
2019-05-07T00:24:07.844Z,146.25
2019-05-07T00:25:07.850Z,146.25
2019-05-07T00:26:07.840Z,146.25
2019-05-07T00:27:07.838Z,146.25
2019-05-07T00:28:07.815Z,146.25
2019-05-07T00:29:07.812Z,140.63
2019-05-07T00:30:07.807Z,140.63
2019-05-07T00:31:07.800Z,140.63
2019-05-07T00:32:07.797Z,140.63
2019-05-07T00:33:07.787Z,135.00
2019-05-07T00:34:07.763Z,135.00
2019-05-07T00:35:07.753Z,129.38
2019-05-07T00:36:07.754Z,135.00
2019-05-07T00:37:07.724Z,135.00
2019-05-07T00:38:07.721Z,135.00
2019-05-07T00:39:07.723Z,135.00
2019-05-07T00:41:40.016Z,146.25
2019-05-07T00:42:39.568Z,146.25
2019-05-07T00:44:32.993Z,151.88
2019-05-07T00:45:32.892Z,151.88
2019-05-07T00:47:25.339Z,157.50
2019-05-07T00:48:25.214Z,163.13
2019-05-07T00:50:18.556Z,168.75
2019-05-07T00:51:18.543Z,168.75
2019-05-07T00:53:13.074Z,157.50
2019-05-07T00:54:12.286Z,163.13
2019-05-07T00:56:03.205Z,168.75
2019-05-07T00:57:03.247Z,163.13
2019-05-07T00:58:55.637Z,168.75
2019-05-07T00:59:55.510Z,168.75
2019-05-07T01:01:47.871Z,163.13
2019-05-07T01:02:47.838Z,157.50
2019-05-07T01:04:42.230Z,146.25
2019-05-07T01:05:40.210Z,146.25
2019-05-07T01:07:32.653Z,151.88
2019-05-07T01:10:24.915Z,157.50
2019-05-07T01:11:24.842Z,157.50
2019-05-07T01:13:17.782Z,157.50
2019-05-07T01:14:17.179Z,157.50
2019-05-07T01:16:09.836Z,157.50
2019-05-07T01:17:09.995Z,157.50
2019-05-07T01:19:02.154Z,157.50
2019-05-07T01:20:02.968Z,163.13
2019-05-07T01:21:54.471Z,163.13
2019-05-07T01:22:54.759Z,163.13
2019-05-07T01:24:46.587Z,168.75
2019-05-07T01:25:47.126Z,168.75
2019-05-07T01:27:39.230Z,163.13
2019-05-07T01:28:39.381Z,151.88
2019-05-07T01:30:32.448Z,140.63
2019-05-07T01:31:32.861Z,140.63
2019-05-07T01:33:23.862Z,146.25
2019-05-07T01:34:23.625Z,140.63
2019-05-07T01:36:15.958Z,157.50
2019-05-07T01:37:15.933Z,163.13
2019-05-07T01:40:39.473Z,157.50
2019-05-07T01:41:39.339Z,157.50
2019-05-07T01:43:32.176Z,157.50
2019-05-07T01:44:32.543Z,157.50
2019-05-07T01:46:24.776Z,151.88
2019-05-07T01:47:24.003Z,151.88
2019-05-07T01:49:16.415Z,157.50
2019-05-07T01:50:16.337Z,157.50
2019-05-07T01:52:08.780Z,151.88
2019-05-07T01:53:08.688Z,151.88
2019-05-07T01:55:03.221Z,157.50
2019-05-07T01:56:03.057Z,163.13
2019-05-07T01:57:54.155Z,157.50
2019-05-07T01:58:53.369Z,157.50
2019-05-07T02:00:45.710Z,157.50
2019-05-07T02:01:45.690Z,157.50
2019-05-07T02:04:38.022Z,157.50
2019-05-07T02:06:32.657Z,163.13
2019-05-07T02:07:30.377Z,157.50
2019-05-07T02:09:22.962Z,151.88
2019-05-07T02:10:22.770Z,146.25
2019-05-07T02:12:15.103Z,151.88
2019-05-07T02:13:15.062Z,151.88
2019-05-07T02:15:07.532Z,157.50
2019-05-07T02:16:07.413Z,157.50
2019-05-07T02:18:01.777Z,157.50
2019-05-07T02:19:01.987Z,157.50
2019-05-07T02:20:52.208Z,163.13
2019-05-07T02:21:52.793Z,157.50
2019-05-07T02:24:44.447Z,157.50
2019-05-07T02:26:57.906Z,157.50
2019-05-07T02:28:29.208Z,151.88
2019-05-07T02:29:29.688Z,151.88
2019-05-07T02:31:23.338Z,146.25
2019-05-07T02:32:23.663Z,146.25
2019-05-07T02:34:14.109Z,140.63
2019-05-07T02:35:13.793Z,140.63
2019-05-07T02:37:06.242Z,140.63
2019-05-07T02:38:05.654Z,140.63
2019-05-07T02:39:58.209Z,146.25
2019-05-07T02:40:58.011Z,146.25
2019-05-07T02:44:23.226Z,140.63
2019-05-07T02:45:23.939Z,135.00
2019-05-07T02:47:14.712Z,140.63
2019-05-07T02:48:14.529Z,140.63
2019-05-07T02:50:06.863Z,135.00
2019-05-07T02:51:06.849Z,140.63
2019-05-07T02:52:59.304Z,140.63
2019-05-07T02:53:59.173Z,135.00
2019-05-07T02:55:52.823Z,146.25
2019-05-07T02:56:53.266Z,146.25
2019-05-07T02:58:44.091Z,146.25
2019-05-07T02:59:44.089Z,146.25
2019-05-07T03:01:36.201Z,146.25
2019-05-07T03:02:36.179Z,140.63
2019-05-07T03:04:28.806Z,135.00
2019-05-07T03:05:28.021Z,135.00
2019-05-07T03:07:20.369Z,135.00
2019-05-07T03:08:24.411Z,135.00
2019-05-07T03:10:13.995Z,129.38
2019-05-07T03:11:14.053Z,129.38
2019-05-07T03:13:05.018Z,123.75
2019-05-07T03:14:05.013Z,118.13
2019-05-07T03:15:57.463Z,129.38
2019-05-07T03:16:57.333Z,129.38
2019-05-07T03:18:53.045Z,129.38
2019-05-07T03:19:49.663Z,123.75
2019-05-07T03:21:44.065Z,123.75
2019-05-07T03:22:42.816Z,123.75
2019-05-07T03:24:34.570Z,123.75
2019-05-07T03:25:34.338Z,123.75
2019-05-07T03:27:26.887Z,118.13
2019-05-07T03:28:26.653Z,118.13
2019-05-07T03:30:19.091Z,118.13
2019-05-07T03:31:18.987Z,118.13
2019-05-07T03:33:15.713Z,118.13
2019-05-07T03:34:15.899Z,118.13
2019-05-07T03:36:07.010Z,112.50
2019-05-07T03:37:06.064Z,112.50
2019-05-07T03:38:57.437Z,112.50
2019-05-07T03:39:55.970Z,112.50
2019-05-07T03:41:48.403Z,106.88
2019-05-07T03:42:48.283Z,106.88
2019-05-07T03:44:44.198Z,106.88
2019-05-07T03:45:43.144Z,106.88
2019-05-07T03:47:33.334Z,106.88
2019-05-07T03:48:33.463Z,106.88
2019-05-07T03:50:25.517Z,106.88
2019-05-07T03:51:25.294Z,101.25
2019-05-07T03:53:17.749Z,101.25
2019-05-07T03:54:17.636Z,101.25
2019-05-07T03:56:12.988Z,101.25
2019-05-07T03:57:11.730Z,95.63
2019-05-07T03:59:03.614Z,95.63
2019-05-07T04:00:04.375Z,95.63
2019-05-07T04:01:54.846Z,95.63
2019-05-07T04:02:54.633Z,90.00
2019-05-07T04:04:46.990Z,90.00
2019-05-07T04:05:46.973Z,90.00
2019-05-07T04:07:42.714Z,84.38
2019-05-07T04:08:39.298Z,90.00
2019-05-07T04:10:33.851Z,90.00
2019-05-07T04:11:33.774Z,90.00
2019-05-07T04:13:24.582Z,90.00
2019-05-07T04:14:23.978Z,90.00
2019-05-07T04:16:16.416Z,90.00
2019-05-07T04:17:22.107Z,90.00
2019-05-07T04:20:39.304Z,90.00
2019-05-07T04:21:39.242Z,90.00
2019-05-07T04:23:34.084Z,90.00
2019-05-07T04:24:33.259Z,90.00
2019-05-07T04:26:24.076Z,90.00
2019-05-07T04:27:24.011Z,84.38
2019-05-07T04:29:16.283Z,84.38
2019-05-07T04:30:16.193Z,84.38
2019-05-07T04:32:08.628Z,84.38
2019-05-07T04:33:08.546Z,84.38
2019-05-07T04:35:03.578Z,78.75
2019-05-07T04:36:02.926Z,78.75
2019-05-07T04:37:53.515Z,78.75
2019-05-07T04:38:53.397Z,78.75
2019-05-07T04:40:47.180Z,73.13
2019-05-07T04:41:46.706Z,73.13
2019-05-07T04:43:43.179Z,73.13
2019-05-07T04:44:39.671Z,73.13
2019-05-07T04:46:33.301Z,73.13
2019-05-07T04:47:42.058Z,67.50
2019-05-07T04:49:25.290Z,67.50
2019-05-07T04:50:37.856Z,67.50
2019-05-07T04:52:16.277Z,61.88
2019-05-07T04:53:16.167Z,61.88
2019-05-07T04:55:08.633Z,61.88
2019-05-07T04:56:08.514Z,61.88
2019-05-07T05:00:13.695Z,61.88
2019-05-07T05:01:13.870Z,56.25
2019-05-07T05:03:05.555Z,56.25
2019-05-07T05:04:24.218Z,56.25
2019-05-07T05:05:58.109Z,56.25
2019-05-07T05:06:58.466Z,56.25
2019-05-07T05:08:53.323Z,56.25
2019-05-07T05:09:52.985Z,56.25
2019-05-07T05:11:43.929Z,61.88
2019-05-07T05:12:42.975Z,61.88
2019-05-07T05:14:34.881Z,67.50
2019-05-07T05:15:34.872Z,67.50
2019-05-07T05:17:27.398Z,73.13
2019-05-07T05:18:27.258Z,73.13
2019-05-07T05:20:19.579Z,78.75
2019-05-07T05:21:19.590Z,78.75
2019-05-07T05:23:12.252Z,78.75
2019-05-07T05:24:12.597Z,78.75
2019-05-07T05:26:05.328Z,84.38
2019-05-07T05:27:04.711Z,84.38
2019-05-07T05:28:57.256Z,84.38
2019-05-07T05:29:57.036Z,84.38
2019-05-07T05:31:49.403Z,78.75
2019-05-07T05:32:49.379Z,78.75
2019-05-07T05:34:42.614Z,78.75
2019-05-07T05:35:43.052Z,78.75
2019-05-07T05:37:34.045Z,78.75
2019-05-07T05:38:34.010Z,78.75
2019-05-07T05:40:26.575Z,78.75
2019-05-07T05:41:26.358Z,78.75
2019-05-07T05:43:19.281Z,78.75
2019-05-07T05:44:18.694Z,78.75
2019-05-07T05:46:12.184Z,78.75
2019-05-07T05:47:11.957Z,78.75
2019-05-07T05:49:03.414Z,78.75
2019-05-07T05:50:03.389Z,84.38
2019-05-07T05:51:57.699Z,78.75
2019-05-07T05:52:57.490Z,78.75
2019-05-07T05:54:49.926Z,78.75
2019-05-07T05:55:52.821Z,78.75
2019-05-07T05:59:23.716Z,90.00
2019-05-07T06:00:13.315Z,90.00
2019-05-07T06:02:06.688Z,90.00
2019-05-07T06:03:05.644Z,90.00
2019-05-07T06:04:58.306Z,90.00
2019-05-07T06:05:57.962Z,90.00
2019-05-07T06:07:52.092Z,90.00
2019-05-07T06:08:51.938Z,84.38
2019-05-07T06:10:42.552Z,78.75
2019-05-07T06:11:42.962Z,78.75
2019-05-07T06:13:34.520Z,84.38
2019-05-07T06:14:34.497Z,90.00
2019-05-07T06:16:27.056Z,90.00
2019-05-07T06:17:26.831Z,90.00
2019-05-07T06:19:19.285Z,90.00
2019-05-07T06:20:19.185Z,90.00
2019-05-07T06:22:12.885Z,90.00
2019-05-07T06:23:12.886Z,84.38
2019-05-07T06:25:03.962Z,84.38
2019-05-07T06:26:05.091Z,84.38
2019-05-07T06:27:56.347Z,84.38
2019-05-07T06:28:56.707Z,84.38
2019-05-07T06:30:48.607Z,84.38
2019-05-07T06:31:48.610Z,78.75
2019-05-07T06:33:42.940Z,73.13
2019-05-07T06:34:44.499Z,78.75
2019-05-07T06:36:33.330Z,84.38
2019-05-07T06:37:33.325Z,84.38
2019-05-07T06:40:29.316Z,95.63
2019-05-07T06:42:19.023Z,101.25
2019-05-07T06:43:18.973Z,101.25
2019-05-07T06:45:12.495Z,101.25
2019-05-07T06:46:12.615Z,101.25
2019-05-07T06:48:04.453Z,101.25
2019-05-07T06:50:57.595Z,101.25
2019-05-07T06:51:56.817Z,101.25
2019-05-07T06:53:49.150Z,95.63
2019-05-07T06:54:49.126Z,95.63
2019-05-07T06:56:42.156Z,95.63
2019-05-07T06:57:42.541Z,95.63
2019-05-07T06:59:34.772Z,90.00
2019-05-07T07:00:34.292Z,90.00
2019-05-07T07:02:27.772Z,90.00
2019-05-07T07:03:26.146Z,90.00
2019-05-07T07:04:26.138Z,90.00
2019-05-07T07:05:26.122Z,90.00
2019-05-07T07:06:26.133Z,84.38
2019-05-07T07:07:32.030Z,84.38
2019-05-07T07:08:26.154Z,84.38
2019-05-07T07:09:26.095Z,84.38
2019-05-07T07:10:26.084Z,78.75
2019-05-07T07:11:26.103Z,78.75
2019-05-07T07:12:26.265Z,73.13
2019-05-07T07:13:26.058Z,67.50
2019-05-07T07:14:26.081Z,67.50
2019-05-07T07:15:26.045Z,67.50
2019-05-07T07:16:26.031Z,67.50
2019-05-07T07:17:26.010Z,67.50
2019-05-07T07:18:26.007Z,67.50
2019-05-07T07:19:26.011Z,67.50
2019-05-07T07:20:25.998Z,73.13
2019-05-07T07:21:25.984Z,73.13
2019-05-07T07:22:25.987Z,73.13
2019-05-07T07:23:25.963Z,73.13
2019-05-07T07:24:25.946Z,73.13
2019-05-07T07:25:25.949Z,73.13
2019-05-07T07:26:25.927Z,67.50
2019-05-07T07:27:25.931Z,67.50
2019-05-07T07:28:25.928Z,61.88
2019-05-07T07:29:25.903Z,61.88
2019-05-07T07:30:25.895Z,56.25
2019-05-07T07:31:26.314Z,56.25
2019-05-07T07:32:25.907Z,56.25
2019-05-07T07:33:25.891Z,56.25
2019-05-07T07:34:25.873Z,56.25
2019-05-07T07:35:25.876Z,56.25
2019-05-07T07:36:25.849Z,61.88
2019-05-07T07:37:25.828Z,61.88
2019-05-07T07:38:25.829Z,61.88
2019-05-07T07:39:25.800Z,61.88
2019-05-07T07:40:25.850Z,61.88
2019-05-07T07:41:25.786Z,61.88
2019-05-07T07:42:25.769Z,56.25
2019-05-07T07:43:25.762Z,50.63
2019-05-07T07:44:25.773Z,50.63
2019-05-07T07:45:25.768Z,50.63
2019-05-07T07:46:25.729Z,61.88
2019-05-07T07:47:25.749Z,61.88
2019-05-07T07:48:28.284Z,61.88
2019-05-07T07:49:25.721Z,61.88
2019-05-07T07:50:25.726Z,61.88
2019-05-07T07:51:38.045Z,61.88
2019-05-07T07:52:25.688Z,61.88
2019-05-07T07:53:25.667Z,61.88
2019-05-07T07:54:25.681Z,61.88
2019-05-07T07:55:25.671Z,61.88
2019-05-07T07:56:25.650Z,61.88
2019-05-07T07:57:25.626Z,61.88
2019-05-07T07:58:25.628Z,67.50
2019-05-07T07:59:25.628Z,67.50
2019-05-07T08:00:26.226Z,61.88
2019-05-07T08:01:25.603Z,56.25
2019-05-07T08:02:25.599Z,56.25
2019-05-07T08:03:25.582Z,50.63
2019-05-07T08:04:25.565Z,50.63
2019-05-07T08:05:25.560Z,50.63
2019-05-07T08:06:25.539Z,50.63
2019-05-07T08:07:25.530Z,45.00
2019-05-07T08:08:25.563Z,45.00
2019-05-07T08:09:25.867Z,45.00
2019-05-07T08:10:25.514Z,39.38
2019-05-07T08:11:25.526Z,45.00
2019-05-07T08:12:25.484Z,45.00
2019-05-07T08:13:25.500Z,45.00
2019-05-07T08:14:25.488Z,45.00
2019-05-07T08:15:25.462Z,45.00
2019-05-07T08:16:25.457Z,45.00
2019-05-07T08:17:25.458Z,39.38
2019-05-07T08:18:25.465Z,39.38
2019-05-07T08:19:25.421Z,39.38
2019-05-07T08:20:25.408Z,39.38
2019-05-07T08:21:25.396Z,39.38
2019-05-07T08:22:25.404Z,39.38
2019-05-07T08:24:56.539Z,33.75
2019-05-07T08:25:56.436Z,33.75
2019-05-07T08:27:48.779Z,33.75
2019-05-07T08:28:48.794Z,33.75
2019-05-07T08:30:42.023Z,33.75
2019-05-07T08:31:42.483Z,33.75
2019-05-07T08:33:33.443Z,33.75
2019-05-07T08:34:32.966Z,39.38
2019-05-07T08:36:25.588Z,39.38
2019-05-07T08:37:25.314Z,39.38
2019-05-07T08:39:17.710Z,33.75
2019-05-07T08:40:17.668Z,33.75
2019-05-07T08:42:12.117Z,33.75
2019-05-07T08:43:10.011Z,33.75
2019-05-07T08:45:03.070Z,33.75
2019-05-07T08:46:02.703Z,33.75
2019-05-07T08:47:55.147Z,33.75
2019-05-07T08:48:55.018Z,33.75
2019-05-07T08:50:47.957Z,33.75
2019-05-07T08:51:47.779Z,33.75
2019-05-07T08:53:42.306Z,33.75
2019-05-07T08:54:40.140Z,33.75
2019-05-07T08:56:33.049Z,33.75
2019-05-07T08:57:32.413Z,28.13
2019-05-07T08:59:26.331Z,33.75
2019-05-07T09:00:24.748Z,28.13
2019-05-07T09:02:17.218Z,33.75
2019-05-07T09:03:22.093Z,33.75
2019-05-07T09:05:11.970Z,33.75
2019-05-07T09:06:11.674Z,33.75
2019-05-07T09:07:12.834Z,33.75
2019-05-07T09:08:12.488Z,33.75
2019-05-07T09:09:12.824Z,33.75
2019-05-07T09:10:12.584Z,33.75
2019-05-07T09:11:10.575Z,33.75
2019-05-07T09:12:12.443Z,33.75
2019-05-07T09:13:12.465Z,33.75
2019-05-07T09:14:12.610Z,33.75
2019-05-07T09:15:12.303Z,33.75
2019-05-07T09:16:12.743Z,33.75
2019-05-07T09:17:12.531Z,33.75
2019-05-07T09:18:12.332Z,33.75
2019-05-07T09:19:12.614Z,33.75
2019-05-07T09:20:12.384Z,33.75
2019-05-07T09:21:12.441Z,33.75
2019-05-07T09:22:12.473Z,33.75
2019-05-07T09:23:12.253Z,39.38
2019-05-07T09:24:12.171Z,33.75
2019-05-07T09:25:12.745Z,33.75
2019-05-07T09:26:10.416Z,33.75
2019-05-07T09:27:12.232Z,33.75
2019-05-07T09:28:11.895Z,33.75
2019-05-07T09:29:11.805Z,33.75
2019-05-07T09:30:12.641Z,33.75
2019-05-07T09:31:12.034Z,33.75
2019-05-07T09:32:12.093Z,33.75
2019-05-07T09:33:12.434Z,33.75
2019-05-07T09:34:11.774Z,33.75
2019-05-07T09:35:12.372Z,33.75
2019-05-07T09:36:12.048Z,33.75
2019-05-07T09:37:12.282Z,33.75
2019-05-07T09:38:12.051Z,33.75
2019-05-07T09:39:12.043Z,28.13
2019-05-07T09:40:12.436Z,28.13
2019-05-07T09:41:12.042Z,28.13
2019-05-07T09:42:12.074Z,28.13
2019-05-07T09:43:11.726Z,28.13
2019-05-07T09:44:11.964Z,28.13
2019-05-07T09:45:12.044Z,28.13
2019-05-07T09:46:10.246Z,28.13
2019-05-07T09:47:10.219Z,28.13
2019-05-07T09:48:11.945Z,28.13
2019-05-07T09:49:11.915Z,28.13
2019-05-07T09:50:11.863Z,28.13
2019-05-07T09:51:12.153Z,28.13
2019-05-07T09:52:12.144Z,28.13
2019-05-07T09:53:12.731Z,28.13
2019-05-07T09:54:10.155Z,28.13
2019-05-07T09:55:16.689Z,28.13
2019-05-07T09:56:12.247Z,28.13
2019-05-07T09:57:25.192Z,28.13
2019-05-07T09:58:12.344Z,28.13
2019-05-07T09:59:10.092Z,28.13
2019-05-07T10:00:12.155Z,28.13
2019-05-07T10:01:10.080Z,28.13
2019-05-07T10:02:12.097Z,28.13
2019-05-07T10:03:12.400Z,28.13
2019-05-07T10:04:10.046Z,28.13
2019-05-07T10:05:10.052Z,28.13
2019-05-07T10:06:10.061Z,28.13
2019-05-07T10:07:10.129Z,28.13
2019-05-07T10:08:10.131Z,28.13
2019-05-07T10:09:11.887Z,28.13
2019-05-07T10:10:11.779Z,28.13
2019-05-07T10:11:12.025Z,28.13
2019-05-07T10:12:12.067Z,28.13
2019-05-07T10:13:12.087Z,28.13
2019-05-07T10:14:12.222Z,28.13
2019-05-07T10:15:12.083Z,28.13
2019-05-07T10:16:09.930Z,28.13
2019-05-07T10:17:11.845Z,28.13
2019-05-07T10:18:12.395Z,28.13
2019-05-07T10:19:09.915Z,28.13
2019-05-07T10:20:19.350Z,28.13
2019-05-07T10:21:09.890Z,28.13
2019-05-07T10:22:09.866Z,28.13
2019-05-07T10:23:11.622Z,28.13
2019-05-07T10:24:09.863Z,28.13
2019-05-07T10:25:12.146Z,28.13
2019-05-07T10:26:09.823Z,28.13
2019-05-07T10:27:09.836Z,28.13
2019-05-07T10:28:09.805Z,28.13
2019-05-07T10:29:09.803Z,28.13
2019-05-07T10:30:09.808Z,28.13
2019-05-07T10:31:09.949Z,28.13
2019-05-07T10:32:09.775Z,33.75
2019-05-07T10:33:09.765Z,33.75
2019-05-07T10:34:12.080Z,33.75
2019-05-07T10:35:09.756Z,39.38
2019-05-07T10:36:09.777Z,39.38
2019-05-07T10:37:11.866Z,39.38
2019-05-07T10:38:09.718Z,39.38
2019-05-07T10:39:09.716Z,39.38
2019-05-07T10:40:12.063Z,39.38
2019-05-07T10:41:12.016Z,39.38
2019-05-07T10:42:09.678Z,39.38
2019-05-07T10:43:09.681Z,39.38
2019-05-07T10:44:11.757Z,39.38
2019-05-07T10:45:09.653Z,33.75
2019-05-07T10:46:09.654Z,33.75
2019-05-07T10:47:09.635Z,33.75
2019-05-07T10:48:11.566Z,33.75
2019-05-07T10:49:09.603Z,33.75
2019-05-07T10:50:11.694Z,28.13
2019-05-07T10:51:09.599Z,28.13
2019-05-07T10:52:09.584Z,28.13
2019-05-07T10:53:09.578Z,28.13
2019-05-07T10:54:09.582Z,28.13
2019-05-07T10:55:11.885Z,22.50
2019-05-07T10:56:11.677Z,22.50
2019-05-07T10:57:09.520Z,22.50
2019-05-07T10:58:09.527Z,22.50
2019-05-07T10:59:09.523Z,22.50
2019-05-07T11:00:09.508Z,22.50
2019-05-07T11:01:09.489Z,22.50
2019-05-07T11:02:09.475Z,22.50
2019-05-07T11:03:09.483Z,22.50
2019-05-07T11:04:09.480Z,16.88
2019-05-07T11:05:10.235Z,16.88
2019-05-07T11:06:09.445Z,16.88
2019-05-07T11:07:09.429Z,16.88
2019-05-07T11:08:09.414Z,16.88
2019-05-07T11:09:09.413Z,16.88
2019-05-07T11:10:09.411Z,16.88
2019-05-07T11:11:09.402Z,16.88
2019-05-07T11:12:09.388Z,16.88
2019-05-07T11:13:09.370Z,16.88
2019-05-07T11:14:09.354Z,16.88
2019-05-07T11:15:09.352Z,16.88
2019-05-07T11:16:09.331Z,16.88
2019-05-07T11:17:09.343Z,16.88
2019-05-07T11:18:09.310Z,16.88
2019-05-07T11:19:09.313Z,16.88
2019-05-07T11:20:09.294Z,16.88
2019-05-07T11:21:09.296Z,16.88
2019-05-07T11:22:09.284Z,16.88
2019-05-07T11:23:09.260Z,16.88
2019-05-07T11:24:09.385Z,16.88
2019-05-07T11:25:09.263Z,16.88
2019-05-07T11:26:09.249Z,16.88
2019-05-07T11:27:09.242Z,16.88
2019-05-07T11:28:09.215Z,16.88
2019-05-07T11:29:09.220Z,16.88
2019-05-07T11:30:11.790Z,16.88
2019-05-07T11:31:09.193Z,16.88
2019-05-07T11:32:09.180Z,16.88
2019-05-07T11:33:09.173Z,16.88
2019-05-07T11:34:09.170Z,16.88
2019-05-07T11:35:09.163Z,16.88
2019-05-07T11:36:09.139Z,16.88
2019-05-07T11:37:09.133Z,11.25
2019-05-07T11:38:18.582Z,11.25
2019-05-07T11:39:09.124Z,11.25
2019-05-07T11:40:09.111Z,11.25
2019-05-07T11:41:09.100Z,11.25
2019-05-07T11:42:09.092Z,11.25
2019-05-07T11:43:09.081Z,11.25
2019-05-07T11:44:09.077Z,11.25
2019-05-07T11:45:09.048Z,11.25
2019-05-07T11:46:09.049Z,11.25
2019-05-07T11:47:09.041Z,11.25
2019-05-07T11:48:09.032Z,11.25
2019-05-07T11:49:09.028Z,11.25
2019-05-07T11:50:08.998Z,11.25
2019-05-07T11:51:08.988Z,11.25
2019-05-07T11:52:08.979Z,11.25
2019-05-07T11:53:08.964Z,5.63
2019-05-07T11:54:08.967Z,5.63
2019-05-07T11:55:08.965Z,5.63
2019-05-07T11:56:08.947Z,5.63
2019-05-07T11:57:08.945Z,5.63
2019-05-07T11:58:08.948Z,5.63
2019-05-07T11:59:08.910Z,5.63
2019-05-07T12:00:08.932Z,5.63
2019-05-07T12:01:08.884Z,5.63
2019-05-07T12:02:08.885Z,5.63
2019-05-07T12:03:08.878Z,5.63
2019-05-07T12:04:08.876Z,5.63
2019-05-07T12:05:08.873Z,5.63
2019-05-07T12:06:08.854Z,5.63
2019-05-07T12:07:08.828Z,5.63
2019-05-07T12:08:08.879Z,5.63
2019-05-07T12:09:08.813Z,5.63
2019-05-07T12:10:08.823Z,5.63
2019-05-07T12:11:08.885Z,5.63
2019-05-07T12:12:08.790Z,5.63
2019-05-07T12:13:08.776Z,5.63
2019-05-07T12:14:08.757Z,5.63
2019-05-07T12:15:08.765Z,5.63
2019-05-07T12:16:11.397Z,5.63
2019-05-07T12:17:08.738Z,5.63
2019-05-07T12:18:08.714Z,5.63
2019-05-07T12:19:09.004Z,0.00
2019-05-07T12:20:08.693Z,0.00
2019-05-07T12:21:18.266Z,0.00
2019-05-07T12:22:08.707Z,0.00
2019-05-07T12:23:08.680Z,0.00
2019-05-07T12:24:08.674Z,0.00
2019-05-07T12:25:08.654Z,0.00
2019-05-07T12:26:08.644Z,0.00
2019-05-07T12:27:08.740Z,0.00
2019-05-07T12:28:08.632Z,0.00
2019-05-07T12:29:08.614Z,0.00
2019-05-07T12:30:08.600Z,0.00
2019-05-07T12:31:08.596Z,0.00
2019-05-07T12:32:08.576Z,0.00
2019-05-07T12:33:08.575Z,0.00
2019-05-07T12:34:08.559Z,0.00
2019-05-07T12:35:08.554Z,0.00
2019-05-07T12:36:08.547Z,0.00
2019-05-07T12:37:08.540Z,0.00
2019-05-07T12:38:08.523Z,0.00
2019-05-07T12:39:08.504Z,0.00
2019-05-07T12:40:08.500Z,0.00
2019-05-07T12:41:08.492Z,0.00
2019-05-07T12:42:08.469Z,0.00
2019-05-07T12:43:10.494Z,0.00
2019-05-07T12:44:08.459Z,0.00
2019-05-07T12:45:08.462Z,0.00
2019-05-07T12:46:08.451Z,0.00
2019-05-07T12:47:08.431Z,0.00
2019-05-07T12:48:11.334Z,0.00
2019-05-07T12:49:08.410Z,0.00
2019-05-07T12:50:08.394Z,0.00
2019-05-07T12:51:08.401Z,0.00
2019-05-07T12:52:08.383Z,0.00
2019-05-07T12:53:08.375Z,0.00
2019-05-07T12:54:08.408Z,0.00
2019-05-07T12:55:08.353Z,0.00
2019-05-07T12:56:08.340Z,0.00
2019-05-07T12:57:08.326Z,0.00
2019-05-07T12:58:08.323Z,0.00
2019-05-07T12:59:08.329Z,0.00
2019-05-07T13:00:08.313Z,0.00
2019-05-07T13:01:08.308Z,0.00
2019-05-07T13:02:21.507Z,0.00
2019-05-07T13:03:08.291Z,0.00
2019-05-07T13:04:08.265Z,0.00
2019-05-07T13:05:08.239Z,0.00
2019-05-07T13:06:08.241Z,0.00
2019-05-07T13:07:08.220Z,0.00
2019-05-07T13:08:08.230Z,0.00
2019-05-07T13:09:08.219Z,0.00
2019-05-07T13:10:08.706Z,0.00
2019-05-07T13:11:08.189Z,0.00
2019-05-07T13:12:08.181Z,0.00
2019-05-07T13:13:08.182Z,0.00
2019-05-07T13:14:08.168Z,0.00
2019-05-07T13:15:21.944Z,0.00
2019-05-07T13:16:08.149Z,0.00
2019-05-07T13:17:08.129Z,0.00
2019-05-07T13:18:08.119Z,0.00
2019-05-07T13:19:08.112Z,0.00
2019-05-07T13:20:08.088Z,0.00
2019-05-07T13:21:08.101Z,0.00
2019-05-07T13:22:08.086Z,0.00
2019-05-07T13:23:08.075Z,0.00
2019-05-07T13:24:08.067Z,0.00
2019-05-07T13:25:08.059Z,0.00
2019-05-07T13:26:08.049Z,0.00
2019-05-07T13:27:08.034Z,0.00
2019-05-07T13:28:08.029Z,0.00
2019-05-07T13:29:08.012Z,0.00
2019-05-07T13:30:08.067Z,0.00
2019-05-07T13:31:07.992Z,0.00
2019-05-07T13:32:07.978Z,0.00
2019-05-07T13:33:07.975Z,0.00
2019-05-07T13:34:07.958Z,0.00
2019-05-07T13:35:07.965Z,0.00
2019-05-07T13:36:07.934Z,0.00
2019-05-07T13:37:07.939Z,0.00
2019-05-07T13:38:07.936Z,0.00
2019-05-07T13:39:07.908Z,0.00
2019-05-07T13:40:07.884Z,0.00
2019-05-07T13:41:07.877Z,0.00
2019-05-07T13:42:07.869Z,0.00
2019-05-07T13:43:07.866Z,0.00
2019-05-07T13:44:07.866Z,0.00
2019-05-07T13:45:07.854Z,0.00
2019-05-07T13:46:07.840Z,0.00
2019-05-07T13:47:07.830Z,0.00
2019-05-07T13:48:07.839Z,0.00
2019-05-07T13:49:07.795Z,0.00
2019-05-07T13:50:07.786Z,0.00
2019-05-07T13:51:07.791Z,0.00
2019-05-07T13:52:07.764Z,0.00
2019-05-07T13:53:07.763Z,0.00
2019-05-07T13:54:07.751Z,0.00
2019-05-07T13:55:07.745Z,0.00
2019-05-07T13:56:07.734Z,0.00
2019-05-07T13:57:07.715Z,0.00
2019-05-07T13:58:07.705Z,0.00
2019-05-07T13:59:07.703Z,0.00
2019-05-07T14:00:07.745Z,0.00
2019-05-07T14:01:07.696Z,0.00
2019-05-07T14:02:07.675Z,0.00
2019-05-07T14:03:07.665Z,0.00
2019-05-07T14:04:07.646Z,0.00
2019-05-07T14:05:07.654Z,0.00
2019-05-07T14:06:07.626Z,0.00
2019-05-07T14:07:07.618Z,0.00
2019-05-07T14:08:07.612Z,0.00
2019-05-07T14:09:07.597Z,0.00
2019-05-07T14:10:07.607Z,0.00
2019-05-07T14:11:07.587Z,0.00
2019-05-07T14:12:07.579Z,0.00
2019-05-07T14:13:12.751Z,0.00
2019-05-07T14:14:07.565Z,0.00
2019-05-07T14:15:07.552Z,0.00
2019-05-07T14:16:07.543Z,0.00
2019-05-07T14:17:07.511Z,0.00
2019-05-07T14:18:07.505Z,0.00
2019-05-07T14:19:07.508Z,0.00
2019-05-07T14:20:07.526Z,0.00
2019-05-07T14:21:07.492Z,0.00
2019-05-07T14:22:15.443Z,0.00
2019-05-07T14:23:07.466Z,0.00
2019-05-07T14:24:07.456Z,0.00
2019-05-07T14:25:07.429Z,0.00
2019-05-07T14:26:07.440Z,0.00
2019-05-07T14:27:07.423Z,0.00
2019-05-07T14:28:07.411Z,0.00
2019-05-07T14:29:07.387Z,0.00
2019-05-07T14:30:07.380Z,0.00
2019-05-07T14:31:07.388Z,0.00
2019-05-07T14:32:07.362Z,0.00
2019-05-07T14:33:07.373Z,0.00
2019-05-07T14:34:07.362Z,0.00
2019-05-07T14:35:07.336Z,0.00
2019-05-07T14:36:07.327Z,0.00
2019-05-07T14:37:07.337Z,0.00
2019-05-07T14:38:07.312Z,0.00
2019-05-07T14:39:07.297Z,0.00
2019-05-07T14:40:07.401Z,0.00
2019-05-07T14:41:07.283Z,0.00
2019-05-07T14:42:07.269Z,0.00
2019-05-07T14:43:07.258Z,0.00
2019-05-07T14:44:07.250Z,0.00
2019-05-07T14:45:07.255Z,0.00
2019-05-07T14:46:07.216Z,0.00
2019-05-07T14:47:07.223Z,0.00
2019-05-07T14:48:07.227Z,0.00
2019-05-07T14:49:07.188Z,0.00
2019-05-07T14:50:07.196Z,0.00
2019-05-07T14:51:07.170Z,0.00
2019-05-07T14:52:07.182Z,0.00
2019-05-07T14:53:07.157Z,0.00
2019-05-07T14:54:07.134Z,0.00
2019-05-07T14:55:07.132Z,0.00
2019-05-07T14:56:07.129Z,0.00
2019-05-07T14:57:07.116Z,0.00
2019-05-07T14:58:07.115Z,0.00
2019-05-07T14:59:07.093Z,0.00
2019-05-07T15:00:07.077Z,0.00
2019-05-07T15:01:07.071Z,0.00
2019-05-07T15:02:07.072Z,0.00
2019-05-07T15:03:07.053Z,0.00
2019-05-07T15:04:07.041Z,0.00
2019-05-07T15:05:07.030Z,0.00
2019-05-07T15:06:07.026Z,0.00
2019-05-07T15:07:07.017Z,0.00
2019-05-07T15:08:10.913Z,0.00
2019-05-07T15:09:06.993Z,0.00
2019-05-07T15:10:06.999Z,0.00
2019-05-07T15:11:06.962Z,0.00
2019-05-07T15:12:06.966Z,0.00
2019-05-07T15:13:06.938Z,0.00
2019-05-07T15:14:06.952Z,0.00
2019-05-07T15:15:06.930Z,0.00